createdAt,value
2019-05-20T00:01:22.281Z,38.56
2019-05-20T00:03:49.529Z,38.50
2019-05-20T00:06:16.419Z,38.49
2019-05-20T00:08:43.398Z,38.52
2019-05-20T00:11:10.346Z,38.62
2019-05-20T00:13:37.292Z,38.64
2019-05-20T00:16:04.479Z,38.65
2019-05-20T00:18:31.445Z,38.60
2019-05-20T00:20:58.576Z,38.61
2019-05-20T00:23:25.556Z,38.63
2019-05-20T00:25:52.573Z,38.65
2019-05-20T00:28:19.806Z,38.79
2019-05-20T00:30:46.713Z,38.95
2019-05-20T00:33:13.666Z,38.90
2019-05-20T00:35:41.677Z,38.91
2019-05-20T00:38:08.540Z,39.02
2019-05-20T00:40:36.387Z,39.22
2019-05-20T00:43:03.267Z,39.28
2019-05-20T00:45:30.228Z,39.37
2019-05-20T00:47:57.113Z,39.43
2019-05-20T00:50:24.050Z,39.36
2019-05-20T00:52:50.930Z,39.34
2019-05-20T00:55:17.830Z,39.36
2019-05-20T00:57:44.780Z,39.44
2019-05-20T01:00:11.799Z,39.39
2019-05-20T01:02:38.744Z,39.34
2019-05-20T01:05:05.708Z,39.36
2019-05-20T01:07:32.971Z,39.30
2019-05-20T01:09:59.891Z,39.39
2019-05-20T01:12:26.850Z,39.60
2019-05-20T01:14:54.770Z,39.64
2019-05-20T01:17:21.637Z,39.57
2019-05-20T01:19:48.547Z,39.46
2019-05-20T01:22:15.417Z,39.41
2019-05-20T01:24:42.319Z,39.48
2019-05-20T01:27:09.292Z,39.61
2019-05-20T01:29:36.219Z,39.55
2019-05-20T01:32:03.085Z,39.69
2019-05-20T01:34:30.005Z,39.85
2019-05-20T01:36:56.963Z,39.92
2019-05-20T01:39:23.959Z,39.82
2019-05-20T01:41:50.907Z,39.84
2019-05-20T01:44:17.862Z,39.86
2019-05-20T01:46:45.022Z,39.77
2019-05-20T01:49:11.910Z,39.77
2019-05-20T01:51:39.382Z,39.76
2019-05-20T01:54:06.309Z,39.69
2019-05-20T01:56:33.182Z,39.62
2019-05-20T01:59:00.143Z,39.70
2019-05-20T02:01:27.083Z,39.73
2019-05-20T02:03:53.960Z,39.92
2019-05-20T02:06:20.913Z,40.12
2019-05-20T02:08:47.860Z,40.21
2019-05-20T02:11:14.738Z,40.33
2019-05-20T02:13:41.701Z,40.41
2019-05-20T02:16:08.664Z,40.49
2019-05-20T02:18:35.659Z,40.51
2019-05-20T02:21:02.558Z,40.54
2019-05-20T02:23:29.562Z,40.61
2019-05-20T02:25:56.513Z,40.62
2019-05-20T02:28:23.399Z,40.68
2019-05-20T02:30:50.690Z,40.69
2019-05-20T02:33:17.633Z,40.63
2019-05-20T02:35:44.531Z,40.65
2019-05-20T02:38:11.477Z,40.60
2019-05-20T02:40:38.769Z,40.63
2019-05-20T02:43:05.723Z,40.57
2019-05-20T02:45:32.711Z,40.64
2019-05-20T02:48:00.623Z,40.92
2019-05-20T02:50:28.684Z,40.99
2019-05-20T02:52:55.613Z,40.99
2019-05-20T02:55:22.603Z,41.04
2019-05-20T02:57:49.549Z,40.93
2019-05-20T03:00:16.535Z,40.88
2019-05-20T03:02:43.452Z,40.83
2019-05-20T03:05:10.318Z,40.75
2019-05-20T03:07:37.301Z,40.79
2019-05-20T03:10:04.260Z,40.86
2019-05-20T03:12:31.524Z,40.98
2019-05-20T03:14:58.466Z,41.05
2019-05-20T03:17:25.412Z,40.95
2019-05-20T03:19:52.351Z,40.86
2019-05-20T03:22:19.340Z,41.02
2019-05-20T03:24:46.292Z,41.18
2019-05-20T03:27:13.266Z,41.25
2019-05-20T03:29:41.291Z,41.25
2019-05-20T03:32:08.269Z,41.15
2019-05-20T03:34:50.863Z,41.20
2019-05-20T03:37:03.869Z,41.30
2019-05-20T03:39:30.831Z,41.32
2019-05-20T03:41:57.777Z,41.28
2019-05-20T03:44:24.649Z,41.23
2019-05-20T03:46:51.609Z,41.12
2019-05-20T03:49:18.476Z,41.01
2019-05-20T03:51:46.853Z,41.01
2019-05-20T03:54:13.806Z,41.04
2019-05-20T03:56:40.806Z,41.10
2019-05-20T03:59:07.779Z,41.19
2019-05-20T04:01:34.685Z,41.48
2019-05-20T04:04:01.561Z,41.62
2019-05-20T04:06:28.552Z,41.63
2019-05-20T04:08:55.505Z,41.54
2019-05-20T04:11:22.462Z,41.49
2019-05-20T04:13:49.326Z,41.39
2019-05-20T04:16:16.207Z,41.26
2019-05-20T04:18:43.161Z,41.21
2019-05-20T04:21:10.114Z,41.12
2019-05-20T04:23:37.221Z,41.04
2019-05-20T04:26:04.231Z,41.14
2019-05-20T04:28:31.167Z,41.11
2019-05-20T04:30:58.049Z,41.09
2019-05-20T04:33:25.029Z,41.22
2019-05-20T04:35:51.990Z,41.22
2019-05-20T04:38:18.953Z,41.23
2019-05-20T04:40:45.889Z,41.08
2019-05-20T04:43:12.765Z,41.03
2019-05-20T04:45:39.650Z,40.99
2019-05-20T04:48:06.666Z,40.90
2019-05-20T04:50:33.642Z,40.87
2019-05-20T04:53:00.567Z,40.69
2019-05-20T04:55:27.481Z,40.45
2019-05-20T04:57:54.812Z,40.17
2019-05-20T05:00:21.769Z,40.12
2019-05-20T05:02:48.730Z,40.06
2019-05-20T05:05:16.829Z,39.97
2019-05-20T05:07:43.738Z,39.88
2019-05-20T05:10:10.709Z,39.73
2019-05-20T05:12:37.685Z,39.68
2019-05-20T05:15:07.758Z,39.69
2019-05-20T05:17:33.243Z,39.66
2019-05-20T05:20:00.182Z,39.69
2019-05-20T05:22:27.146Z,39.78
2019-05-20T05:24:54.021Z,39.84
2019-05-20T05:27:20.985Z,39.94
2019-05-20T05:29:48.922Z,39.96
2019-05-20T05:32:15.797Z,40.02
2019-05-20T05:34:42.665Z,40.03
2019-05-20T05:37:09.526Z,40.03
2019-05-20T05:39:36.428Z,39.99
2019-05-20T05:42:03.535Z,39.89
2019-05-20T05:44:30.523Z,39.86
2019-05-20T05:46:57.392Z,39.88
2019-05-20T05:49:24.295Z,39.93
2019-05-20T05:51:51.240Z,39.86
2019-05-20T05:54:18.653Z,39.75
2019-05-20T05:56:45.667Z,39.30
2019-05-20T05:59:12.623Z,38.94
2019-05-20T06:01:39.494Z,38.56
2019-05-20T06:04:06.469Z,37.99
2019-05-20T06:06:33.408Z,37.13
2019-05-20T06:09:00.296Z,36.51
2019-05-20T06:11:27.243Z,35.86
2019-05-20T06:13:54.208Z,35.94
2019-05-20T06:16:35.264Z,35.85
2019-05-20T06:18:49.765Z,36.07
2019-05-20T06:21:16.819Z,36.25
2019-05-20T06:23:43.813Z,36.30
2019-05-20T06:26:10.769Z,36.34
2019-05-20T06:28:37.716Z,36.63
2019-05-20T06:31:04.969Z,36.84
2019-05-20T06:33:31.869Z,36.94
2019-05-20T06:35:58.833Z,37.02
2019-05-20T06:38:26.110Z,37.15
2019-05-20T06:40:52.978Z,37.20
2019-05-20T06:43:19.951Z,37.01
2019-05-20T06:45:47.277Z,36.71
2019-05-20T06:48:14.213Z,36.59
2019-05-20T06:50:41.093Z,36.49
2019-05-20T06:53:08.022Z,36.27
2019-05-20T06:55:34.919Z,36.10
2019-05-20T06:58:01.802Z,36.16
2019-05-20T07:00:29.848Z,36.39
2019-05-20T07:02:56.792Z,36.55
2019-05-20T07:05:23.746Z,36.57
2019-05-20T07:07:50.625Z,36.45
2019-05-20T07:10:17.940Z,36.09
2019-05-20T07:12:44.896Z,35.73
2019-05-20T07:15:11.808Z,35.07
2019-05-20T07:17:39.105Z,34.50
2019-05-20T07:20:06.364Z,34.34
2019-05-20T07:22:34.309Z,34.22
2019-05-20T07:25:01.220Z,34.41
2019-05-20T07:27:28.930Z,34.33
2019-05-20T07:29:56.189Z,34.15
2019-05-20T07:32:23.079Z,33.62
2019-05-20T07:34:50.029Z,34.00
2019-05-20T07:37:16.958Z,34.10
2019-05-20T07:39:43.944Z,34.42
2019-05-20T07:42:10.933Z,34.50
2019-05-20T07:44:37.905Z,34.78
2019-05-20T07:47:04.796Z,35.13
2019-05-20T07:49:32.201Z,35.33
2019-05-20T07:51:59.108Z,35.44
2019-05-20T07:54:26.072Z,35.53
2019-05-20T07:56:53.018Z,35.54
2019-05-20T07:59:19.963Z,35.47
2019-05-20T08:01:46.961Z,35.60
2019-05-20T08:04:14.359Z,35.84
2019-05-20T08:06:41.255Z,35.88
2019-05-20T08:09:08.255Z,35.84
2019-05-20T08:11:35.160Z,36.10
2019-05-20T08:14:02.077Z,36.37
2019-05-20T08:16:29.042Z,36.36
2019-05-20T08:18:56.003Z,36.40
2019-05-20T08:21:23.266Z,36.37
2019-05-20T08:23:50.435Z,36.53
2019-05-20T08:26:17.508Z,36.63
2019-05-20T08:28:44.467Z,36.79
2019-05-20T08:31:11.453Z,36.90
2019-05-20T08:33:38.408Z,36.96
2019-05-20T08:36:05.645Z,36.87
2019-05-20T08:38:32.575Z,37.09
2019-05-20T08:40:59.476Z,37.04
2019-05-20T08:43:26.427Z,36.92
2019-05-20T08:45:53.372Z,37.01
2019-05-20T08:48:20.250Z,36.93
2019-05-20T08:50:47.413Z,36.89
2019-05-20T08:53:14.355Z,36.74
2019-05-20T08:55:41.329Z,36.77
2019-05-20T08:58:08.581Z,36.69
2019-05-20T09:00:35.553Z,36.82
2019-05-20T09:03:02.483Z,36.90
2019-05-20T09:05:29.437Z,36.99
2019-05-20T09:08:03.170Z,37.05
2019-05-20T09:10:25.357Z,37.02
2019-05-20T09:12:52.310Z,36.98
2019-05-20T09:15:19.249Z,37.09
2019-05-20T09:17:46.247Z,37.02
2019-05-20T09:20:13.260Z,37.07
2019-05-20T09:22:40.262Z,37.34
2019-05-20T09:25:07.364Z,37.60
2019-05-20T09:27:35.973Z,37.58
2019-05-20T09:30:02.997Z,37.63
2019-05-20T09:32:31.553Z,37.48
2019-05-20T09:34:58.504Z,37.30
2019-05-20T09:37:25.423Z,37.17
2019-05-20T09:39:52.453Z,37.13
2019-05-20T09:42:19.449Z,37.15
2019-05-20T09:44:46.774Z,37.27
2019-05-20T09:47:13.740Z,37.52
2019-05-20T09:49:40.690Z,37.48
2019-05-20T09:52:07.666Z,37.68
2019-05-20T09:54:34.594Z,37.69
2019-05-20T09:57:01.473Z,37.88
2019-05-20T09:59:42.086Z,37.83
2019-05-20T10:01:57.249Z,37.67
2019-05-20T10:04:24.214Z,37.63
2019-05-20T10:06:51.397Z,37.86
2019-05-20T10:09:18.436Z,37.94
2019-05-20T10:11:45.325Z,37.96
2019-05-20T10:14:12.200Z,38.11
2019-05-20T10:16:39.174Z,38.32
2019-05-20T10:19:06.135Z,38.60
2019-05-20T10:21:33.056Z,38.67
2019-05-20T10:24:01.481Z,38.81
2019-05-20T10:26:29.536Z,39.02
2019-05-20T10:28:56.531Z,39.31
2019-05-20T10:31:23.479Z,39.51
2019-05-20T10:33:50.450Z,39.57
2019-05-20T10:36:17.650Z,39.60
2019-05-20T10:38:58.150Z,39.77
2019-05-20T10:41:13.163Z,39.99
2019-05-20T10:43:40.085Z,40.11
2019-05-20T10:46:06.945Z,40.21
2019-05-20T10:48:33.834Z,40.36
2019-05-20T10:51:00.712Z,40.45
2019-05-20T10:53:28.484Z,40.52
2019-05-20T10:55:55.639Z,40.72
2019-05-20T10:58:22.644Z,40.78
2019-05-20T11:01:01.764Z,40.85
2019-05-20T11:03:18.190Z,40.79
2019-05-20T11:05:45.151Z,40.85
2019-05-20T11:08:12.107Z,40.82
2019-05-20T11:10:39.069Z,40.57
2019-05-20T11:13:07.012Z,40.20
2019-05-20T11:15:33.966Z,39.96
2019-05-20T11:18:00.953Z,39.87
2019-05-20T11:20:27.932Z,39.81
2019-05-20T11:22:54.887Z,39.99
2019-05-20T11:25:21.835Z,40.06
2019-05-20T11:27:49.136Z,40.15
2019-05-20T11:30:16.554Z,40.27
2019-05-20T11:32:43.498Z,40.57
2019-05-20T11:35:10.469Z,40.91
2019-05-20T11:37:37.436Z,41.14
2019-05-20T11:40:05.370Z,41.19
2019-05-20T11:42:32.983Z,41.38
2019-05-20T11:44:59.949Z,41.58
2019-05-20T11:47:26.917Z,41.70
2019-05-20T11:49:53.896Z,41.75
2019-05-20T11:52:20.840Z,41.87
2019-05-20T11:54:47.880Z,42.00
2019-05-20T11:57:14.858Z,42.22
2019-05-20T11:59:41.833Z,42.25
2019-05-20T12:02:08.825Z,42.36
2019-05-20T12:04:35.742Z,42.57
2019-05-20T12:07:02.691Z,42.58
2019-05-20T12:09:29.579Z,42.51
2019-05-20T12:11:56.472Z,42.62
2019-05-20T12:14:23.782Z,42.63
2019-05-20T12:16:50.651Z,42.50
2019-05-20T12:19:17.626Z,42.31
2019-05-20T12:21:44.529Z,42.34
2019-05-20T12:24:11.500Z,42.43
2019-05-20T12:26:38.463Z,42.46
2019-05-20T12:29:05.433Z,42.50
2019-05-20T12:31:32.303Z,42.59
2019-05-20T12:33:59.573Z,42.98
2019-05-20T12:36:26.821Z,43.25
2019-05-20T12:38:54.883Z,43.33
2019-05-20T12:41:21.900Z,43.49
2019-05-20T12:44:09.027Z,43.61
2019-05-20T12:46:17.577Z,43.70
2019-05-20T12:48:44.523Z,43.90
2019-05-20T12:51:14.497Z,44.04
2019-05-20T12:53:40.127Z,44.69
2019-05-20T12:56:07.068Z,45.06
2019-05-20T12:58:34.009Z,44.98
2019-05-20T13:01:00.924Z,45.00
2019-05-20T13:03:28.353Z,45.16
2019-05-20T13:05:55.309Z,44.98
2019-05-20T13:08:22.281Z,44.65
2019-05-20T13:10:49.607Z,44.43
2019-05-20T13:13:16.469Z,44.37
2019-05-20T13:15:43.348Z,44.34
2019-05-20T13:18:10.311Z,44.38
2019-05-20T13:20:37.257Z,44.53
2019-05-20T13:23:06.555Z,44.69
2019-05-20T13:25:32.998Z,44.95
2019-05-20T13:27:59.876Z,45.10
2019-05-20T13:30:26.768Z,45.22
2019-05-20T13:32:54.037Z,45.19
2019-05-20T13:35:20.993Z,45.27
2019-05-20T13:37:48.146Z,45.41
2019-05-20T13:40:15.108Z,45.62
2019-05-20T13:42:42.138Z,45.85
2019-05-20T13:45:09.082Z,46.01
2019-05-20T13:47:36.072Z,45.90
2019-05-20T13:50:03.022Z,45.90
2019-05-20T13:52:29.890Z,45.89
2019-05-20T13:54:56.769Z,45.79
2019-05-20T13:57:23.730Z,45.86
2019-05-20T13:59:50.971Z,46.03
2019-05-20T14:02:17.934Z,46.21
2019-05-20T14:04:44.866Z,46.30
2019-05-20T14:07:11.817Z,46.47
2019-05-20T14:09:38.772Z,46.71
2019-05-20T14:12:05.737Z,46.76
2019-05-20T14:14:32.709Z,47.26
2019-05-20T14:16:59.689Z,47.87
2019-05-20T14:19:26.628Z,47.38
2019-05-20T14:21:53.565Z,47.31
2019-05-20T14:24:20.429Z,47.17
2019-05-20T14:26:47.362Z,47.10
2019-05-20T14:29:14.262Z,47.17
2019-05-20T14:31:41.224Z,47.31
2019-05-20T14:36:40.067Z,47.71
2019-05-20T14:39:04.030Z,47.65
2019-05-20T14:41:31.266Z,47.49
2019-05-20T14:43:58.234Z,46.82
2019-05-20T14:46:25.180Z,46.50
2019-05-20T14:48:52.551Z,46.32
2019-05-20T14:51:19.424Z,46.41
2019-05-20T14:53:46.313Z,46.91
2019-05-20T14:56:13.347Z,47.03
2019-05-20T14:58:40.607Z,46.95
2019-05-20T15:01:07.593Z,47.38
2019-05-20T15:03:34.539Z,47.68
2019-05-20T15:06:01.675Z,47.89
2019-05-20T15:08:33.343Z,48.09
2019-05-20T15:10:57.714Z,48.36
2019-05-20T15:13:24.650Z,48.36
2019-05-20T15:15:51.603Z,48.33
2019-05-20T15:18:18.557Z,48.31
2019-05-20T15:20:46.658Z,48.14
2019-05-20T15:23:13.879Z,48.00
2019-05-20T15:25:40.788Z,47.93
2019-05-20T15:28:08.078Z,47.75
2019-05-20T15:30:34.970Z,47.62
2019-05-20T15:33:01.984Z,47.56
2019-05-20T15:35:28.918Z,47.32
2019-05-20T15:37:56.039Z,47.28
2019-05-20T15:40:24.423Z,47.43
2019-05-20T15:42:51.717Z,47.60
2019-05-20T15:45:18.648Z,47.64
2019-05-20T15:47:45.584Z,47.58
2019-05-20T15:50:12.479Z,47.52
2019-05-20T15:52:39.564Z,47.66
2019-05-20T15:55:07.833Z,47.80
2019-05-20T15:57:34.706Z,47.84
2019-05-20T16:00:01.570Z,47.66
2019-05-20T16:02:28.616Z,47.52
2019-05-20T16:04:55.503Z,47.53
2019-05-20T16:07:22.465Z,47.80
2019-05-20T16:09:49.411Z,47.71
2019-05-20T16:12:16.303Z,47.92
2019-05-20T16:14:43.262Z,47.89
2019-05-20T16:17:10.208Z,47.74
2019-05-20T16:19:37.395Z,47.84
2019-05-20T16:22:04.294Z,48.10
2019-05-20T16:24:31.334Z,48.31
2019-05-20T16:26:58.255Z,48.57
2019-05-20T16:29:25.140Z,48.74
2019-05-20T16:31:52.461Z,48.81
2019-05-20T16:34:19.324Z,48.73
2019-05-20T16:36:46.515Z,48.51
2019-05-20T16:39:13.387Z,48.40
2019-05-20T16:41:40.262Z,48.29
2019-05-20T16:44:07.149Z,48.42
2019-05-20T16:46:34.417Z,48.34
2019-05-20T16:49:01.365Z,48.26
2019-05-20T16:51:28.232Z,48.23
2019-05-20T16:53:55.113Z,48.26
2019-05-20T16:56:22.401Z,48.38
2019-05-20T16:58:49.365Z,48.38
2019-05-20T17:01:16.601Z,48.50
2019-05-20T17:03:43.542Z,48.72
2019-05-20T17:06:10.480Z,48.79
2019-05-20T17:08:37.839Z,48.88
2019-05-20T17:11:04.776Z,48.96
2019-05-20T17:13:31.726Z,49.02
2019-05-20T17:15:58.587Z,48.96
2019-05-20T17:18:25.725Z,48.89
2019-05-20T17:20:52.663Z,48.76
2019-05-20T17:23:19.832Z,48.62
2019-05-20T17:25:50.070Z,48.48
2019-05-20T17:28:15.356Z,48.31
2019-05-20T17:30:45.489Z,48.25
2019-05-20T17:33:11.198Z,48.33
2019-05-20T17:35:38.159Z,48.39
2019-05-20T17:38:05.129Z,48.51
2019-05-20T17:40:32.076Z,48.63
2019-05-20T17:42:59.041Z,48.64
2019-05-20T17:45:26.214Z,48.60
2019-05-20T17:47:53.124Z,48.62
2019-05-20T17:50:20.073Z,48.64
2019-05-20T17:52:47.367Z,48.57
2019-05-20T17:55:14.526Z,48.52
2019-05-20T17:57:41.471Z,48.67
2019-05-20T18:00:08.428Z,48.78
2019-05-20T18:02:35.389Z,48.79
2019-05-20T18:05:02.322Z,48.74
2019-05-20T18:07:29.185Z,48.73
2019-05-20T18:09:56.061Z,49.04
2019-05-20T18:12:23.034Z,49.14
2019-05-20T18:14:49.984Z,49.25
2019-05-20T18:17:16.892Z,49.35
2019-05-20T18:19:43.853Z,49.65
2019-05-20T18:22:10.806Z,49.56
2019-05-20T18:24:38.817Z,49.48
2019-05-20T18:27:05.701Z,49.41
2019-05-20T18:29:32.993Z,49.27
2019-05-20T18:31:59.862Z,49.18
2019-05-20T18:34:26.740Z,49.35
2019-05-20T18:36:53.699Z,49.33
2019-05-20T18:39:20.623Z,49.31
2019-05-20T18:41:47.553Z,49.49
2019-05-20T18:44:14.902Z,49.21
2019-05-20T18:46:41.829Z,48.98
2019-05-20T18:49:08.789Z,48.77
2019-05-20T18:51:35.686Z,48.67
2019-05-20T18:54:02.969Z,48.58
2019-05-20T18:56:29.860Z,48.60
2019-05-20T18:58:56.788Z,48.61
2019-05-20T19:01:24.004Z,48.63
2019-05-20T19:03:50.902Z,48.69
2019-05-20T19:06:17.888Z,48.75
2019-05-20T19:08:45.018Z,48.73
2019-05-20T19:11:12.295Z,48.67
2019-05-20T19:13:39.549Z,48.71
2019-05-20T19:16:06.429Z,49.10
2019-05-20T19:18:33.365Z,49.29
2019-05-20T19:21:00.252Z,49.17
2019-05-20T19:23:27.263Z,49.13
2019-05-20T19:25:54.254Z,49.11
2019-05-20T19:28:21.137Z,49.02
2019-05-20T19:30:48.100Z,48.87
2019-05-20T19:33:15.051Z,48.73
2019-05-20T19:35:42.263Z,48.62
2019-05-20T19:38:09.201Z,48.64
2019-05-20T19:40:36.159Z,48.74
2019-05-20T19:43:03.131Z,48.79
2019-05-20T19:45:30.471Z,48.73
2019-05-20T19:47:57.338Z,48.65
2019-05-20T19:50:24.575Z,48.57
2019-05-20T19:52:51.870Z,48.46
2019-05-20T19:55:19.338Z,48.42
2019-05-20T19:57:46.729Z,48.43
2019-05-20T20:00:13.621Z,48.39
2019-05-20T20:02:40.486Z,48.60
2019-05-20T20:05:07.692Z,48.70
2019-05-20T20:07:35.813Z,48.63
2019-05-20T20:10:02.695Z,48.59
2019-05-20T20:12:29.626Z,48.56
2019-05-20T20:14:56.510Z,48.69
2019-05-20T20:17:23.470Z,48.67
2019-05-20T20:19:50.447Z,48.70
2019-05-20T20:22:17.400Z,48.79
2019-05-20T20:24:44.353Z,48.89
2019-05-20T20:27:11.227Z,49.03
2019-05-20T20:29:38.105Z,49.06
2019-05-20T20:32:05.500Z,48.97
2019-05-20T20:34:32.756Z,48.99
2019-05-20T20:37:00.738Z,48.98
2019-05-20T20:39:27.975Z,48.81
2019-05-20T20:41:54.842Z,48.63
2019-05-20T20:44:21.731Z,48.46
2019-05-20T20:46:48.702Z,48.30
2019-05-20T20:49:15.638Z,48.19
2019-05-20T20:51:42.512Z,48.05
2019-05-20T20:54:09.733Z,47.98
2019-05-20T20:56:36.622Z,48.17
2019-05-20T20:59:03.580Z,48.21
2019-05-20T21:01:30.536Z,48.22
2019-05-20T21:03:57.846Z,48.21
2019-05-20T21:06:24.773Z,48.32
2019-05-20T21:08:52.531Z,48.21
2019-05-20T21:11:19.822Z,48.19
2019-05-20T21:13:46.709Z,48.12
2019-05-20T21:16:13.606Z,48.02
2019-05-20T21:18:41.034Z,47.84
2019-05-20T21:21:08.157Z,47.75
2019-05-20T21:23:37.938Z,47.66
2019-05-20T21:26:03.638Z,47.62
2019-05-20T21:28:30.586Z,47.77
2019-05-20T21:30:57.530Z,47.83
2019-05-20T21:33:24.412Z,47.71
2019-05-20T21:35:51.346Z,47.68
2019-05-20T21:38:18.568Z,47.74
2019-05-20T21:40:45.543Z,48.01
2019-05-20T21:43:13.554Z,48.20
2019-05-20T21:45:40.728Z,48.56
2019-05-20T21:48:07.686Z,48.52
2019-05-20T21:50:34.644Z,48.45
2019-05-20T21:53:01.599Z,48.57
2019-05-20T21:55:28.834Z,48.71
2019-05-20T21:57:55.702Z,48.78
2019-05-20T22:00:22.634Z,48.71
2019-05-20T22:02:51.214Z,48.61
2019-05-20T22:05:18.150Z,48.42
2019-05-20T22:07:45.380Z,48.45
2019-05-20T22:10:12.274Z,48.38
2019-05-20T22:12:39.211Z,48.29
2019-05-20T22:15:06.120Z,48.20
2019-05-20T22:17:33.065Z,48.10
2019-05-20T22:20:00.022Z,48.29
2019-05-20T22:22:26.975Z,48.30
2019-05-20T22:24:53.841Z,48.30
2019-05-20T22:27:20.744Z,48.14
2019-05-20T22:29:47.685Z,48.10
2019-05-20T22:32:15.750Z,48.02
2019-05-20T22:34:53.264Z,48.01
2019-05-20T22:37:11.274Z,47.90
2019-05-20T22:39:38.134Z,47.84
2019-05-20T22:42:05.122Z,47.77
2019-05-20T22:44:32.073Z,47.76
2019-05-20T22:46:59.025Z,47.71
2019-05-20T22:49:25.895Z,47.89
2019-05-20T22:51:52.850Z,47.99
2019-05-20T22:54:19.786Z,48.05
2019-05-20T22:56:46.756Z,47.94
2019-05-20T22:59:13.722Z,47.80
2019-05-20T23:01:40.664Z,47.69
2019-05-20T23:04:07.797Z,47.75
2019-05-20T23:06:34.696Z,47.63
2019-05-20T23:09:01.652Z,47.55
2019-05-20T23:11:30.156Z,47.48
2019-05-20T23:13:57.457Z,47.52
2019-05-20T23:16:24.393Z,47.49
2019-05-20T23:18:51.266Z,47.49
2019-05-20T23:21:18.585Z,47.49
2019-05-20T23:23:46.523Z,47.54
2019-05-20T23:26:13.462Z,47.66
2019-05-20T23:28:40.408Z,47.67
2019-05-20T23:31:07.594Z,47.60
2019-05-20T23:33:34.543Z,47.62
2019-05-20T23:36:01.491Z,47.54
2019-05-20T23:38:28.469Z,47.46
2019-05-20T23:40:55.408Z,47.43
2019-05-20T23:43:22.286Z,47.40
2019-05-20T23:45:49.175Z,47.44
2019-05-20T23:48:16.145Z,47.58
2019-05-20T23:50:43.493Z,47.82
2019-05-20T23:53:10.461Z,47.75
2019-05-20T23:55:37.398Z,47.65
2019-05-20T23:58:04.375Z,47.68
